WetterOnline ( https://www.wetteronline.at )

Wetter aktuell Heide

Aktuelles Wetter: Heide/Elpersbüttel (5m)

6-stündlich | Neueste Meldungen
Ortszeit Temperatur Wetter
Mo, 14.10. 2:00 14.6° C leicht bewölkt
So, 13.10. 20:00 18.4° C wolkig
So, 13.10. 14:00 14.5° C leichter Regen
So, 13.10. 8:00 10.9° C bedeckt
So, 13.10. 2:00 10.9° C leichter Regen
Sa, 12.10. 20:00 12.3° C leichter Regen
Sa, 12.10. 14:00 12.8° C bedeckt
Sa, 12.10. 8:00 11.6° C leichter Regen
Ortszeit Temperatur Wetter
Mo, 14.10. 3:30 13.9° C fast wolkenlos
Mo, 14.10. 3:20 13.9° C fast wolkenlos
Mo, 14.10. 3:10 14.0° C leicht bewölkt
Mo, 14.10. 3:00 14.4° C leicht bewölkt
Mo, 14.10. 2:50 14.4° C leicht bewölkt
Mo, 14.10. 2:40 14.4° C wolkig
Mo, 14.10. 2:30 14.9° C bewölkt
Mo, 14.10. 2:00 14.6° C leicht bewölkt
Ortszeit Relative Feuchte Sichtweite
Mo, 14.10. 2:00 88% 35 km
So, 13.10. 20:00 92% 30 km
So, 13.10. 14:00 97% 9 km
So, 13.10. 8:00 100% 4.2 km
So, 13.10. 2:00 100% 15 km
Sa, 12.10. 20:00 95% 22 km
Sa, 12.10. 14:00 88% >70 km
Sa, 12.10. 8:00 96% 16 km
Ortszeit Relative Feuchte Sichtweite
Mo, 14.10. 3:30 89% 30 km
Mo, 14.10. 3:20 89% -
Mo, 14.10. 3:10 88% -
Mo, 14.10. 3:00 87% 30 km
Mo, 14.10. 2:50 87% -
Mo, 14.10. 2:40 87% -
Mo, 14.10. 2:30 87% 35 km
Mo, 14.10. 2:00 88% 35 km
Ortszeit Niederschlagsmenge Niederschlagsart
Mo, 14.10. 2:00 0.1 l/m2 in 6 Std. Regen
So, 13.10. 20:00 2 l/m2 in 12 Std. Regen
So, 13.10. 14:00 0.1 l/m2 in 6 Std. Regen
So, 13.10. 8:00 3 l/m2 in 12 Std. Regen
So, 13.10. 2:00 2 l/m2 in 6 Std. Regen
Sa, 12.10. 20:00 1 l/m2 in 12 Std. Regen
Sa, 12.10. 14:00 0.1 l/m2 in 6 Std. Regen
Sa, 12.10. 8:00 7 l/m2 in 12 Std. Regen
Ortszeit Niederschlagsmenge Niederschlagsart
Mo, 14.10. 3:30 0.0 l/m2 in 1 Std. -
Mo, 14.10. 3:20 keine Meldung -
Mo, 14.10. 3:10 keine Meldung -
Mo, 14.10. 3:00 0.0 l/m2 in 1 Std. -
Mo, 14.10. 2:50 keine Meldung -
Mo, 14.10. 2:40 keine Meldung -
Mo, 14.10. 2:30 0.0 l/m2 in 1 Std. -
Mo, 14.10. 2:00 0.0 l/m2 in 1 Std. Regen
Ortszeit Stärke Spitze Richtung
km/h Bft. km/h Grad Sektor
Mo, 14.10. 2:00 35 5 57 230° SW
So, 13.10. 20:00 26 4 37 180° S
So, 13.10. 14:00 7 2 22 140° SO
So, 13.10. 8:00 6 1 15 90° O
So, 13.10. 2:00 11 2 32 210° SW
Sa, 12.10. 20:00 25 4 40 220° SW
Sa, 12.10. 14:00 28 4 44 230° SW
Sa, 12.10. 8:00 30 5 50 230° SW
Ortszeit Stärke Spitze Richtung
km/h Bft. km/h Grad Sektor
Mo, 14.10. 3:30 36 5 50 240° SW
Mo, 14.10. 3:20 36 5 - 240° SW
Mo, 14.10. 3:10 37 5 - 240° SW
Mo, 14.10. 3:00 37 5 52 240° SW
Mo, 14.10. 2:50 37 5 - 240° SW
Mo, 14.10. 2:40 36 5 - 240° SW
Mo, 14.10. 2:30 35 5 50 230° SW
Mo, 14.10. 2:00 35 5 48 230° SW
Ortszeit Untergrenze Bedeckung Gattung
total tief tief mittel hoch
Mo, 14.10. 2:00 10500 m 6/8 0/8 - - -
So, 13.10. 20:00 1440 m 8/8 1/8 - - -
So, 13.10. 14:00 60 m 7/8 7/8 - - -
So, 13.10. 8:00 60 m 8/8 8/8 - - -
So, 13.10. 2:00 60 m 8/8 8/8 - - -
Sa, 12.10. 20:00 60 m 8/8 8/8 - - -
Sa, 12.10. 14:00 1800 m 8/8 8/8 - - -
Sa, 12.10. 8:00 1020 m 7/8 8/8 - - -
Ortszeit Bedeckungsgrad in Achtel und Wolkenuntergrenze
Mo, 14.10. 3:30 1(630m)
Mo, 14.10. 3:20 1(630m)
Mo, 14.10. 3:10 2(660m)
Mo, 14.10. 3:00 4(690m)
Mo, 14.10. 2:50 4(690m)
Mo, 14.10. 2:40 4(690m) 5(900m)
Mo, 14.10. 2:30 3(720m) 6(900m) 7(10500m)
Mo, 14.10. 2:00 6(10500m) 7(10500m)
Ortszeit Luftdruck NN (hPa) Tendenz (hPa in 3 Std.)
Mo, 14.10. 2:00 1008 + 2,7
So, 13.10. 20:00 1004 - 1,7
So, 13.10. 14:00 1009 - 0,9
So, 13.10. 8:00 1010 - 0,8
So, 13.10. 2:00 1011 + 0,5
Sa, 12.10. 20:00 1010 + 0,8
Sa, 12.10. 14:00 1008 + 1,8
Sa, 12.10. 8:00 1004 + 0,9
Ortszeit Luftdruck NN (hPa) Tendenz (hPa in 3 Std.)
Mo, 14.10. 3:30 1009 + 2,7
Mo, 14.10. 3:20 1009 keine Meldung
Mo, 14.10. 3:10 1009 keine Meldung
Mo, 14.10. 3:00 1009 + 3,0
Mo, 14.10. 2:50 1009 keine Meldung
Mo, 14.10. 2:40 1009 keine Meldung
Mo, 14.10. 2:30 1008 + 2,9
Mo, 14.10. 2:00 1008 + 2,7
Ortszeit Schneehöhe (cm)
Mo, 14.10. 2:00 0
So, 13.10. 20:00 0
So, 13.10. 14:00 0
So, 13.10. 8:00 0
So, 13.10. 2:00 0
Sa, 12.10. 20:00 0
Sa, 12.10. 14:00 0
Sa, 12.10. 8:00 0
Ortszeit Schneehöhe (cm)
Mo, 14.10. 3:30 0
Mo, 14.10. 3:20 0
Mo, 14.10. 3:10 0
Mo, 14.10. 3:00 0
Mo, 14.10. 2:50 0
Mo, 14.10. 2:40 0
Mo, 14.10. 2:30 0
Mo, 14.10. 2:00 0
Link zu dieser Seite / Seite empfehlen

Das Wetter in ...